Millerville, AL (36267)

3:07 PM CDT on August 21, 2014 (GMT -0500)
Weathers | Change Station
CLOSE
Current Station
Personal Weather Station
Location: Talladega, AL
Elevation: 942 ft
Nearby Weather Stations
Active Advisory: Heat Advisory

Elev 942 ft 33.32 °N, 85.96 °W | Updated 7 minutes ago

Clear
Clear
91.9 °F
Feels Like 99 °F
N
2.7
Wind Variable Wind from SW

Today
High -- | Low -- °F
--% Chance of Precip.
Yesterday
High -- | Low -- °F
Precip. -- in
6:10 AM 7:22 PM
Waning Crescent, 12% visible
Pressure 30.12 in
Visibility 10.0 miles
Clouds Clear
Heat Index 99 °F
Dew Point 72 °F
Humidity 52%
Rainfall 0.00 in
Snow Depth Not available.
UV 8 out of 12
Pollen 8.90 out of 12
Air Quality Not available.
Flu Activity Not available.
METAR KALX 211955Z AUTO 23004KT 10SM CLR 36/20 A3012 RMK AO2 LTG DSNT NE T03550203

More Conditions Fewer Conditions

Pressure 30.12 in
Visibility 10.0 miles
Clouds Clear
Heat Index 99 °F
Dew Point 72 °F
Humidity 52%
Rainfall 0.00 in
Snow Depth Not available.
UV 8 out of 12
Pollen 8.90 out of 12
Air Quality Not available.
Flu Activity Not available.
METAR KALX 211955Z AUTO 23004KT 10SM CLR 36/20 A3012 RMK AO2 LTG DSNT NE T03550203

More Conditions Fewer Conditions

10-Day Weather Forecast

Almanac

Astronomy

Aug. 21, 2014 Rise Set
Actual Time 6:10 AM CDT 7:22 PM CDT
Civil Twilight 5:45 AM CDT 7:48 PM CDT
Nautical Twilight 5:14 AM CDT 8:18 PM CDT
Astronomical Twilight 4:42 AM CDT 8:50 PM CDT
Moon 2:45 AM CDT 4:46 PM CDT
Length of Visible Light 14h 03m
Length of Day
13h 11m
Tomorrow will be 1m 52s shorter.
Waning Crescent, 12% of the Moon is Illuminated
Today
Waning Crescent
Aug 25
New
Sep 2
First Quarter
Sep 8
Full
Sep 15
Last Quarter

Today's Extremes

State Highs State Lows

Community

WunderPhotos

Upload Photos

1,746,011 photos uploaded!

WunderBlogs® & News

Nearby

Snow Depth

Station Depth Elevation
No new snow has been reported.

Earthquake Activity

City Distance Mag. Time & Date
No recent earthquake activity has been reported nearby.
Minimum magnitude displayed is 2.5.

Coastal Water Temperatures

Place Temperature
No Stations Reporting

Nearby Weather Stations